Terminal Aerodrome Forecast
Issued by NWS Quad Cities IA IL

Home | Current Version | Previous Version | Text Only | Print | Product List | Glossary On
Versions: 1 2 3 4 5 6 7 8 9 10 11 12 13 14 15 16 17 18 19 20
000
FTUS43 KDVN 162300
TAFDBQ
TAF
KDBQ 162320Z 1700/1724 31018G26KT P6SM OVC016
      TEMPO 1700/1703 -SHSN
     FM170300 31016KT P6SM OVC018
     FM170900 31012KT P6SM BKN020
     FM171700 32010KT P6SM SCT025=

USA.gov is the U.S. government's official web portal to all federal, state and local government web resources and services.